sensor_id;sensor_type;location;lat;lon;timestamp;P1;durP1;ratioP1;P2;durP2;ratioP2
33190;SDS011;19554;42.652;23.364;2023-03-08T00:01:17;9.68;;;5.72;;
33190;SDS011;19554;42.652;23.364;2023-03-08T00:03:44;10.00;;;5.78;;
33190;SDS011;19554;42.652;23.364;2023-03-08T00:06:11;8.70;;;5.60;;
33190;SDS011;19554;42.652;23.364;2023-03-08T00:08:38;11.00;;;5.93;;
33190;SDS011;19554;42.652;23.364;2023-03-08T00:11:07;10.65;;;5.43;;
33190;SDS011;19554;42.652;23.364;2023-03-08T00:13:34;11.13;;;5.57;;
33190;SDS011;19554;42.652;23.364;2023-03-08T00:16:04;9.30;;;5.47;;
33190;SDS011;19554;42.652;23.364;2023-03-08T00:21:11;8.68;;;5.25;;
33190;SDS011;19554;42.652;23.364;2023-03-08T00:23:39;9.02;;;5.15;;
33190;SDS011;19554;42.652;23.364;2023-03-08T00:26:05;10.57;;;5.13;;
33190;SDS011;19554;42.652;23.364;2023-03-08T00:28:31;10.50;;;5.20;;
33190;SDS011;19554;42.652;23.364;2023-03-08T00:30:58;7.93;;;5.38;;
33190;SDS011;19554;42.652;23.364;2023-03-08T00:33:31;12.05;;;4.90;;
33190;SDS011;19554;42.652;23.364;2023-03-08T00:35:58;10.95;;;5.53;;
33190;SDS011;19554;42.652;23.364;2023-03-08T00:38:25;14.23;;;5.88;;
33190;SDS011;19554;42.652;23.364;2023-03-08T00:40:52;8.20;;;5.07;;
33190;SDS011;19554;42.652;23.364;2023-03-08T00:43:17;8.88;;;5.00;;
33190;SDS011;19554;42.652;23.364;2023-03-08T00:45:43;9.70;;;5.70;;
33190;SDS011;19554;42.652;23.364;2023-03-08T00:48:09;13.75;;;5.93;;
33190;SDS011;19554;42.652;23.364;2023-03-08T00:50:34;8.23;;;5.15;;
33190;SDS011;19554;42.652;23.364;2023-03-08T00:52:59;23.90;;;10.15;;
33190;SDS011;19554;42.652;23.364;2023-03-08T00:55:25;32.22;;;13.05;;
33190;SDS011;19554;42.652;23.364;2023-03-08T00:57:50;23.27;;;12.10;;
33190;SDS011;19554;42.652;23.364;2023-03-08T01:00:16;16.67;;;7.90;;
33190;SDS011;19554;42.652;23.364;2023-03-08T01:02:41;14.43;;;6.90;;
33190;SDS011;19554;42.652;23.364;2023-03-08T01:05:07;10.98;;;5.03;;
33190;SDS011;19554;42.652;23.364;2023-03-08T01:07:33;10.02;;;5.80;;
33190;SDS011;19554;42.652;23.364;2023-03-08T01:09:59;18.75;;;7.10;;
33190;SDS011;19554;42.652;23.364;2023-03-08T01:12:24;15.60;;;7.00;;
33190;SDS011;19554;42.652;23.364;2023-03-08T01:14:51;15.80;;;7.70;;
33190;SDS011;19554;42.652;23.364;2023-03-08T01:17:17;24.58;;;10.73;;
33190;SDS011;19554;42.652;23.364;2023-03-08T01:19:42;23.55;;;10.70;;
33190;SDS011;19554;42.652;23.364;2023-03-08T01:22:08;17.98;;;8.50;;
33190;SDS011;19554;42.652;23.364;2023-03-08T01:24:33;13.13;;;6.35;;
33190;SDS011;19554;42.652;23.364;2023-03-08T01:26:59;9.60;;;5.45;;
33190;SDS011;19554;42.652;23.364;2023-03-08T01:29:25;10.82;;;5.40;;
33190;SDS011;19554;42.652;23.364;2023-03-08T01:31:51;11.35;;;5.55;;
33190;SDS011;19554;42.652;23.364;2023-03-08T01:34:16;11.88;;;5.32;;
33190;SDS011;19554;42.652;23.364;2023-03-08T01:36:42;14.32;;;5.65;;
33190;SDS011;19554;42.652;23.364;2023-03-08T01:39:07;16.08;;;6.65;;
33190;SDS011;19554;42.652;23.364;2023-03-08T01:41:32;16.40;;;7.70;;
33190;SDS011;19554;42.652;23.364;2023-03-08T01:43:58;11.88;;;6.55;;
33190;SDS011;19554;42.652;23.364;2023-03-08T01:48:55;12.95;;;6.78;;
33190;SDS011;19554;42.652;23.364;2023-03-08T01:54:13;8.82;;;5.13;;
33190;SDS011;19554;42.652;23.364;2023-03-08T01:56:44;8.13;;;5.05;;
33190;SDS011;19554;42.652;23.364;2023-03-08T01:59:12;9.27;;;5.88;;
33190;SDS011;19554;42.652;23.364;2023-03-08T02:01:38;11.98;;;6.78;;
33190;SDS011;19554;42.652;23.364;2023-03-08T02:04:05;10.13;;;6.18;;
33190;SDS011;19554;42.652;23.364;2023-03-08T02:06:31;13.43;;;6.75;;
33190;SDS011;19554;42.652;23.364;2023-03-08T02:08:56;9.18;;;5.93;;
33190;SDS011;19554;42.652;23.364;2023-03-08T02:11:22;15.45;;;6.47;;
33190;SDS011;19554;42.652;23.364;2023-03-08T02:13:49;12.98;;;6.63;;
33190;SDS011;19554;42.652;23.364;2023-03-08T02:16:15;10.07;;;6.22;;
33190;SDS011;19554;42.652;23.364;2023-03-08T02:18:51;10.10;;;6.32;;
33190;SDS011;19554;42.652;23.364;2023-03-08T02:21:18;10.35;;;6.45;;
33190;SDS011;19554;42.652;23.364;2023-03-08T02:23:44;11.82;;;6.95;;
33190;SDS011;19554;42.652;23.364;2023-03-08T02:26:09;16.63;;;8.88;;
33190;SDS011;19554;42.652;23.364;2023-03-08T02:28:35;18.65;;;10.38;;
33190;SDS011;19554;42.652;23.364;2023-03-08T02:31:01;15.30;;;8.18;;
33190;SDS011;19554;42.652;23.364;2023-03-08T02:33:26;13.93;;;7.72;;
33190;SDS011;19554;42.652;23.364;2023-03-08T02:35:52;15.23;;;7.25;;
33190;SDS011;19554;42.652;23.364;2023-03-08T02:38:18;17.38;;;7.38;;
33190;SDS011;19554;42.652;23.364;2023-03-08T02:40:45;14.70;;;7.38;;
33190;SDS011;19554;42.652;23.364;2023-03-08T02:43:11;15.98;;;7.38;;
33190;SDS011;19554;42.652;23.364;2023-03-08T02:45:37;14.05;;;7.55;;
33190;SDS011;19554;42.652;23.364;2023-03-08T02:48:03;14.77;;;7.38;;
33190;SDS011;19554;42.652;23.364;2023-03-08T02:50:29;11.25;;;6.47;;
33190;SDS011;19554;42.652;23.364;2023-03-08T02:52:55;13.40;;;6.88;;
33190;SDS011;19554;42.652;23.364;2023-03-08T02:55:21;10.23;;;6.60;;
33190;SDS011;19554;42.652;23.364;2023-03-08T02:57:46;12.45;;;6.63;;
33190;SDS011;19554;42.652;23.364;2023-03-08T03:00:11;11.07;;;6.65;;
33190;SDS011;19554;42.652;23.364;2023-03-08T03:02:37;10.93;;;6.63;;
33190;SDS011;19554;42.652;23.364;2023-03-08T03:05:03;12.63;;;6.85;;
33190;SDS011;19554;42.652;23.364;2023-03-08T03:07:33;13.95;;;7.60;;
33190;SDS011;19554;42.652;23.364;2023-03-08T03:09:59;13.40;;;7.00;;
33190;SDS011;19554;42.652;23.364;2023-03-08T03:12:25;15.25;;;8.60;;
33190;SDS011;19554;42.652;23.364;2023-03-08T03:14:50;15.90;;;8.75;;
33190;SDS011;19554;42.652;23.364;2023-03-08T03:17:15;22.25;;;11.68;;
33190;SDS011;19554;42.652;23.364;2023-03-08T03:19:41;22.60;;;10.68;;
33190;SDS011;19554;42.652;23.364;2023-03-08T03:22:06;23.15;;;11.90;;
33190;SDS011;19554;42.652;23.364;2023-03-08T03:24:32;16.67;;;9.15;;
33190;SDS011;19554;42.652;23.364;2023-03-08T03:26:57;12.52;;;7.60;;
33190;SDS011;19554;42.652;23.364;2023-03-08T03:29:22;14.93;;;7.05;;
33190;SDS011;19554;42.652;23.364;2023-03-08T03:31:48;11.43;;;7.18;;
33190;SDS011;19554;42.652;23.364;2023-03-08T03:34:13;12.10;;;7.28;;
33190;SDS011;19554;42.652;23.364;2023-03-08T03:36:39;13.50;;;7.07;;
33190;SDS011;19554;42.652;23.364;2023-03-08T03:39:04;14.52;;;8.10;;
33190;SDS011;19554;42.652;23.364;2023-03-08T03:41:30;12.85;;;7.55;;
33190;SDS011;19554;42.652;23.364;2023-03-08T03:43:56;18.15;;;7.78;;
33190;SDS011;19554;42.652;23.364;2023-03-08T03:46:24;14.50;;;7.60;;
33190;SDS011;19554;42.652;23.364;2023-03-08T03:48:49;16.20;;;9.57;;
33190;SDS011;19554;42.652;23.364;2023-03-08T03:51:16;19.15;;;10.30;;
33190;SDS011;19554;42.652;23.364;2023-03-08T03:53:43;20.33;;;10.23;;
33190;SDS011;19554;42.652;23.364;2023-03-08T03:56:12;20.95;;;10.43;;
33190;SDS011;19554;42.652;23.364;2023-03-08T03:58:39;12.90;;;7.85;;
33190;SDS011;19554;42.652;23.364;2023-03-08T04:01:12;12.75;;;7.78;;
33190;SDS011;19554;42.652;23.364;2023-03-08T04:03:40;13.18;;;7.60;;
33190;SDS011;19554;42.652;23.364;2023-03-08T04:06:11;14.20;;;7.80;;
33190;SDS011;19554;42.652;23.364;2023-03-08T04:08:38;14.85;;;7.55;;
33190;SDS011;19554;42.652;23.364;2023-03-08T04:11:08;14.50;;;6.93;;
33190;SDS011;19554;42.652;23.364;2023-03-08T04:13:35;15.93;;;7.95;;
33190;SDS011;19554;42.652;23.364;2023-03-08T04:16:08;13.25;;;7.43;;
33190;SDS011;19554;42.652;23.364;2023-03-08T04:18:37;20.02;;;8.73;;
33190;SDS011;19554;42.652;23.364;2023-03-08T04:21:02;17.92;;;8.15;;
33190;SDS011;19554;42.652;23.364;2023-03-08T04:23:28;25.23;;;12.50;;
33190;SDS011;19554;42.652;23.364;2023-03-08T04:25:53;14.95;;;8.45;;
33190;SDS011;19554;42.652;23.364;2023-03-08T04:28:19;17.70;;;9.00;;
33190;SDS011;19554;42.652;23.364;2023-03-08T04:30:44;16.27;;;9.20;;
33190;SDS011;19554;42.652;23.364;2023-03-08T04:33:09;15.13;;;8.57;;
33190;SDS011;19554;42.652;23.364;2023-03-08T04:35:35;19.65;;;11.60;;
33190;SDS011;19554;42.652;23.364;2023-03-08T04:38:00;17.25;;;10.18;;
33190;SDS011;19554;42.652;23.364;2023-03-08T04:40:25;18.73;;;10.88;;
33190;SDS011;19554;42.652;23.364;2023-03-08T04:42:51;14.98;;;9.52;;
33190;SDS011;19554;42.652;23.364;2023-03-08T04:45:16;16.90;;;9.27;;
33190;SDS011;19554;42.652;23.364;2023-03-08T04:47:42;16.25;;;9.05;;
33190;SDS011;19554;42.652;23.364;2023-03-08T04:50:07;15.32;;;8.27;;
33190;SDS011;19554;42.652;23.364;2023-03-08T04:52:33;14.32;;;7.50;;
33190;SDS011;19554;42.652;23.364;2023-03-08T04:54:58;15.02;;;8.32;;
33190;SDS011;19554;42.652;23.364;2023-03-08T04:57:24;15.80;;;7.55;;
33190;SDS011;19554;42.652;23.364;2023-03-08T04:59:49;16.63;;;8.45;;
33190;SDS011;19554;42.652;23.364;2023-03-08T05:02:15;34.58;;;10.25;;
33190;SDS011;19554;42.652;23.364;2023-03-08T05:04:41;22.42;;;9.60;;
33190;SDS011;19554;42.652;23.364;2023-03-08T05:07:06;14.02;;;7.38;;
33190;SDS011;19554;42.652;23.364;2023-03-08T05:09:31;19.42;;;8.35;;
33190;SDS011;19554;42.652;23.364;2023-03-08T05:11:57;14.65;;;8.27;;
33190;SDS011;19554;42.652;23.364;2023-03-08T05:14:23;16.45;;;8.63;;
33190;SDS011;19554;42.652;23.364;2023-03-08T05:16:48;18.23;;;9.93;;
33190;SDS011;19554;42.652;23.364;2023-03-08T05:19:14;14.77;;;9.02;;
33190;SDS011;19554;42.652;23.364;2023-03-08T05:21:39;21.40;;;8.18;;
33190;SDS011;19554;42.652;23.364;2023-03-08T05:24:05;15.77;;;8.55;;
33190;SDS011;19554;42.652;23.364;2023-03-08T05:26:30;18.48;;;8.75;;
33190;SDS011;19554;42.652;23.364;2023-03-08T05:28:56;15.75;;;8.65;;
33190;SDS011;19554;42.652;23.364;2023-03-08T05:31:25;21.33;;;8.98;;
33190;SDS011;19554;42.652;23.364;2023-03-08T05:33:50;19.95;;;9.23;;
33190;SDS011;19554;42.652;23.364;2023-03-08T05:36:16;18.02;;;8.73;;
33190;SDS011;19554;42.652;23.364;2023-03-08T05:38:42;25.88;;;10.10;;
33190;SDS011;19554;42.652;23.364;2023-03-08T05:41:11;23.05;;;10.02;;
33190;SDS011;19554;42.652;23.364;2023-03-08T05:43:38;24.90;;;10.73;;
33190;SDS011;19554;42.652;23.364;2023-03-08T05:46:07;32.28;;;10.15;;
33190;SDS011;19554;42.652;23.364;2023-03-08T05:48:36;29.73;;;11.32;;
33190;SDS011;19554;42.652;23.364;2023-03-08T05:51:08;26.33;;;10.73;;
33190;SDS011;19554;42.652;23.364;2023-03-08T05:53:38;22.70;;;10.23;;
33190;SDS011;19554;42.652;23.364;2023-03-08T05:56:11;24.65;;;10.18;;
33190;SDS011;19554;42.652;23.364;2023-03-08T05:58:38;29.83;;;9.70;;
33190;SDS011;19554;42.652;23.364;2023-03-08T06:01:15;26.67;;;9.13;;
33190;SDS011;19554;42.652;23.364;2023-03-08T06:03:46;32.63;;;14.25;;
33190;SDS011;19554;42.652;23.364;2023-03-08T06:06:13;32.08;;;12.55;;
33190;SDS011;19554;42.652;23.364;2023-03-08T06:08:40;28.90;;;12.60;;
33190;SDS011;19554;42.652;23.364;2023-03-08T06:11:06;25.50;;;11.40;;
33190;SDS011;19554;42.652;23.364;2023-03-08T06:13:31;22.58;;;9.68;;
33190;SDS011;19554;42.652;23.364;2023-03-08T06:15:58;33.85;;;12.75;;
33190;SDS011;19554;42.652;23.364;2023-03-08T06:18:24;24.27;;;11.27;;
33190;SDS011;19554;42.652;23.364;2023-03-08T06:21:00;20.88;;;9.38;;
33190;SDS011;19554;42.652;23.364;2023-03-08T06:23:28;14.50;;;8.35;;
33190;SDS011;19554;42.652;23.364;2023-03-08T06:25:55;21.90;;;9.13;;
33190;SDS011;19554;42.652;23.364;2023-03-08T06:28:21;40.95;;;10.85;;
33190;SDS011;19554;42.652;23.364;2023-03-08T06:30:49;28.75;;;10.65;;
33190;SDS011;19554;42.652;23.364;2023-03-08T06:33:18;30.42;;;10.82;;
33190;SDS011;19554;42.652;23.364;2023-03-08T06:38:20;24.23;;;9.00;;
33190;SDS011;19554;42.652;23.364;2023-03-08T06:40:45;56.58;;;13.02;;
33190;SDS011;19554;42.652;23.364;2023-03-08T06:43:11;30.40;;;12.02;;
33190;SDS011;19554;42.652;23.364;2023-03-08T06:45:37;30.27;;;10.60;;
33190;SDS011;19554;42.652;23.364;2023-03-08T06:48:02;34.20;;;11.98;;
33190;SDS011;19554;42.652;23.364;2023-03-08T06:50:28;24.52;;;10.55;;
33190;SDS011;19554;42.652;23.364;2023-03-08T06:52:54;34.28;;;10.35;;
33190;SDS011;19554;42.652;23.364;2023-03-08T06:55:19;26.80;;;10.95;;
33190;SDS011;19554;42.652;23.364;2023-03-08T06:57:44;26.00;;;10.02;;
33190;SDS011;19554;42.652;23.364;2023-03-08T07:00:11;16.00;;;7.63;;
33190;SDS011;19554;42.652;23.364;2023-03-08T07:02:37;16.77;;;7.57;;
33190;SDS011;19554;42.652;23.364;2023-03-08T07:05:03;16.92;;;7.93;;
33190;SDS011;19554;42.652;23.364;2023-03-08T07:07:28;13.27;;;7.07;;
33190;SDS011;19554;42.652;23.364;2023-03-08T07:09:54;16.67;;;8.05;;
33190;SDS011;19554;42.652;23.364;2023-03-08T07:12:19;17.20;;;7.88;;
33190;SDS011;19554;42.652;23.364;2023-03-08T07:14:44;13.57;;;7.55;;
33190;SDS011;19554;42.652;23.364;2023-03-08T07:17:10;12.85;;;6.70;;
33190;SDS011;19554;42.652;23.364;2023-03-08T07:19:35;16.45;;;7.35;;
33190;SDS011;19554;42.652;23.364;2023-03-08T07:22:01;13.35;;;7.40;;
33190;SDS011;19554;42.652;23.364;2023-03-08T07:24:26;18.92;;;9.45;;
33190;SDS011;19554;42.652;23.364;2023-03-08T07:26:51;30.70;;;11.25;;
33190;SDS011;19554;42.652;23.364;2023-03-08T07:29:17;27.80;;;9.25;;
33190;SDS011;19554;42.652;23.364;2023-03-08T07:31:42;20.95;;;7.90;;
33190;SDS011;19554;42.652;23.364;2023-03-08T07:34:07;15.18;;;7.50;;
33190;SDS011;19554;42.652;23.364;2023-03-08T07:36:33;23.02;;;8.20;;
33190;SDS011;19554;42.652;23.364;2023-03-08T07:38:58;14.20;;;7.80;;
33190;SDS011;19554;42.652;23.364;2023-03-08T07:41:24;14.80;;;7.82;;
33190;SDS011;19554;42.652;23.364;2023-03-08T07:43:49;17.45;;;7.50;;
33190;SDS011;19554;42.652;23.364;2023-03-08T07:46:14;15.48;;;7.88;;
33190;SDS011;19554;42.652;23.364;2023-03-08T07:48:40;16.90;;;7.82;;
33190;SDS011;19554;42.652;23.364;2023-03-08T07:51:06;18.35;;;7.40;;
33190;SDS011;19554;42.652;23.364;2023-03-08T07:53:34;16.65;;;8.40;;
33190;SDS011;19554;42.652;23.364;2023-03-08T07:56:00;21.90;;;7.90;;
33190;SDS011;19554;42.652;23.364;2023-03-08T07:58:27;19.85;;;9.70;;
33190;SDS011;19554;42.652;23.364;2023-03-08T08:00:53;14.43;;;8.80;;
33190;SDS011;19554;42.652;23.364;2023-03-08T08:03:18;16.58;;;8.32;;
33190;SDS011;19554;42.652;23.364;2023-03-08T08:05:44;17.88;;;8.32;;
33190;SDS011;19554;42.652;23.364;2023-03-08T08:08:09;15.95;;;8.57;;
33190;SDS011;19554;42.652;23.364;2023-03-08T08:10:37;21.73;;;9.60;;
33190;SDS011;19554;42.652;23.364;2023-03-08T08:13:06;20.73;;;9.60;;
33190;SDS011;19554;42.652;23.364;2023-03-08T08:15:32;27.02;;;12.50;;
33190;SDS011;19554;42.652;23.364;2023-03-08T08:17:57;25.73;;;10.27;;
33190;SDS011;19554;42.652;23.364;2023-03-08T08:20:23;15.95;;;9.13;;
33190;SDS011;19554;42.652;23.364;2023-03-08T08:22:50;17.90;;;8.63;;
33190;SDS011;19554;42.652;23.364;2023-03-08T08:25:17;20.35;;;8.32;;
33190;SDS011;19554;42.652;23.364;2023-03-08T08:27:43;18.55;;;8.75;;
33190;SDS011;19554;42.652;23.364;2023-03-08T08:30:08;20.15;;;9.10;;
33190;SDS011;19554;42.652;23.364;2023-03-08T08:32:36;15.30;;;7.93;;
33190;SDS011;19554;42.652;23.364;2023-03-08T08:35:02;23.45;;;9.60;;
33190;SDS011;19554;42.652;23.364;2023-03-08T08:37:29;20.77;;;8.57;;
33190;SDS011;19554;42.652;23.364;2023-03-08T08:39:55;21.52;;;9.23;;
33190;SDS011;19554;42.652;23.364;2023-03-08T08:42:21;19.02;;;9.30;;
33190;SDS011;19554;42.652;23.364;2023-03-08T08:44:46;19.42;;;9.73;;
33190;SDS011;19554;42.652;23.364;2023-03-08T08:47:11;17.63;;;8.57;;
33190;SDS011;19554;42.652;23.364;2023-03-08T08:49:37;20.20;;;8.45;;
33190;SDS011;19554;42.652;23.364;2023-03-08T08:52:03;16.85;;;7.95;;
33190;SDS011;19554;42.652;23.364;2023-03-08T08:54:28;16.40;;;9.02;;
33190;SDS011;19554;42.652;23.364;2023-03-08T08:56:54;19.77;;;8.45;;
33190;SDS011;19554;42.652;23.364;2023-03-08T08:59:19;18.63;;;8.60;;
33190;SDS011;19554;42.652;23.364;2023-03-08T09:01:44;20.13;;;8.85;;
33190;SDS011;19554;42.652;23.364;2023-03-08T09:04:11;15.77;;;8.75;;
33190;SDS011;19554;42.652;23.364;2023-03-08T09:06:38;17.35;;;8.80;;
33190;SDS011;19554;42.652;23.364;2023-03-08T09:09:04;16.58;;;8.73;;
33190;SDS011;19554;42.652;23.364;2023-03-08T09:11:30;14.57;;;8.32;;
33190;SDS011;19554;42.652;23.364;2023-03-08T09:13:56;19.85;;;8.35;;
33190;SDS011;19554;42.652;23.364;2023-03-08T09:16:23;16.80;;;8.40;;
33190;SDS011;19554;42.652;23.364;2023-03-08T09:18:51;23.02;;;10.13;;
33190;SDS011;19554;42.652;23.364;2023-03-08T09:21:17;23.75;;;14.05;;
33190;SDS011;19554;42.652;23.364;2023-03-08T09:23:43;27.42;;;10.27;;
33190;SDS011;19554;42.652;23.364;2023-03-08T09:26:09;18.90;;;9.38;;
33190;SDS011;19554;42.652;23.364;2023-03-08T09:28:35;18.48;;;9.30;;
33190;SDS011;19554;42.652;23.364;2023-03-08T09:31:04;19.23;;;10.00;;
33190;SDS011;19554;42.652;23.364;2023-03-08T09:33:36;16.77;;;9.70;;
33190;SDS011;19554;42.652;23.364;2023-03-08T09:36:02;17.13;;;10.10;;
33190;SDS011;19554;42.652;23.364;2023-03-08T09:38:28;20.50;;;9.27;;
33190;SDS011;19554;42.652;23.364;2023-03-08T09:41:19;18.00;;;9.07;;
33190;SDS011;19554;42.652;23.364;2023-03-08T09:49:31;24.33;;;9.32;;
33190;SDS011;19554;42.652;23.364;2023-03-08T09:54:36;27.35;;;10.63;;
33190;SDS011;19554;42.652;23.364;2023-03-08T09:57:04;23.77;;;9.73;;
33190;SDS011;19554;42.652;23.364;2023-03-08T09:59:38;21.98;;;9.52;;
33190;SDS011;19554;42.652;23.364;2023-03-08T10:10:52;18.52;;;8.73;;
33190;SDS011;19554;42.652;23.364;2023-03-08T10:16:24;17.52;;;9.52;;
33190;SDS011;19554;42.652;23.364;2023-03-08T10:19:34;25.83;;;10.25;;
33190;SDS011;19554;42.652;23.364;2023-03-08T10:21:50;19.08;;;9.13;;
33190;SDS011;19554;42.652;23.364;2023-03-08T10:25:18;24.25;;;8.77;;
33190;SDS011;19554;42.652;23.364;2023-03-08T10:27:25;14.50;;;8.82;;
33190;SDS011;19554;42.652;23.364;2023-03-08T10:29:56;19.75;;;9.30;;
33190;SDS011;19554;42.652;23.364;2023-03-08T10:32:23;22.90;;;8.48;;
33190;SDS011;19554;42.652;23.364;2023-03-08T10:34:50;21.70;;;9.05;;
33190;SDS011;19554;42.652;23.364;2023-03-08T10:37:15;14.00;;;8.98;;
33190;SDS011;19554;42.652;23.364;2023-03-08T10:39:48;19.55;;;9.35;;
33190;SDS011;19554;42.652;23.364;2023-03-08T10:42:18;17.55;;;9.10;;
33190;SDS011;19554;42.652;23.364;2023-03-08T10:44:56;20.27;;;9.73;;
33190;SDS011;19554;42.652;23.364;2023-03-08T10:47:28;20.83;;;10.13;;
33190;SDS011;19554;42.652;23.364;2023-03-08T10:50:09;15.40;;;9.70;;
33190;SDS011;19554;42.652;23.364;2023-03-08T10:52:38;19.95;;;10.18;;
33190;SDS011;19554;42.652;23.364;2023-03-08T10:55:05;17.63;;;9.52;;
33190;SDS011;19554;42.652;23.364;2023-03-08T10:57:46;19.63;;;8.60;;
33190;SDS011;19554;42.652;23.364;2023-03-08T11:00:39;20.33;;;9.10;;
33190;SDS011;19554;42.652;23.364;2023-03-08T11:03:15;26.25;;;9.48;;
33190;SDS011;19554;42.652;23.364;2023-03-08T11:08:35;24.45;;;9.90;;
33190;SDS011;19554;42.652;23.364;2023-03-08T11:11:04;19.00;;;9.88;;
33190;SDS011;19554;42.652;23.364;2023-03-08T11:13:38;19.10;;;8.95;;
33190;SDS011;19554;42.652;23.364;2023-03-08T11:24:17;18.40;;;8.07;;
33190;SDS011;19554;42.652;23.364;2023-03-08T11:35:31;16.17;;;7.85;;
33190;SDS011;19554;42.652;23.364;2023-03-08T11:46:21;11.45;;;6.22;;
33190;SDS011;19554;42.652;23.364;2023-03-08T11:49:08;13.70;;;6.13;;
33190;SDS011;19554;42.652;23.364;2023-03-08T11:58:00;15.63;;;6.53;;
33190;SDS011;19554;42.652;23.364;2023-03-08T12:00:34;14.45;;;5.95;;
33190;SDS011;19554;42.652;23.364;2023-03-08T12:03:38;15.55;;;6.13;;
33190;SDS011;19554;42.652;23.364;2023-03-08T12:06:18;15.98;;;6.53;;
33190;SDS011;19554;42.652;23.364;2023-03-08T12:08:55;13.38;;;5.50;;
33190;SDS011;19554;42.652;23.364;2023-03-08T12:11:28;8.82;;;5.03;;
33190;SDS011;19554;42.652;23.364;2023-03-08T12:14:05;8.57;;;4.28;;
33190;SDS011;19554;42.652;23.364;2023-03-08T12:16:47;12.23;;;4.85;;
33190;SDS011;19554;42.652;23.364;2023-03-08T12:19:19;10.50;;;5.45;;
33190;SDS011;19554;42.652;23.364;2023-03-08T12:22:11;9.73;;;4.68;;
33190;SDS011;19554;42.652;23.364;2023-03-08T12:28:22;5.43;;;1.90;;
33190;SDS011;19554;42.652;23.364;2023-03-08T12:33:43;5.15;;;1.60;;
33190;SDS011;19554;42.652;23.364;2023-03-08T12:36:10;3.72;;;1.50;;
33190;SDS011;19554;42.652;23.364;2023-03-08T12:38:37;4.72;;;1.48;;
33190;SDS011;19554;42.652;23.364;2023-03-08T12:41:28;3.83;;;2.00;;
33190;SDS011;19554;42.652;23.364;2023-03-08T12:46:26;6.85;;;2.50;;
33190;SDS011;19554;42.652;23.364;2023-03-08T12:48:52;3.78;;;2.28;;
33190;SDS011;19554;42.652;23.364;2023-03-08T12:53:57;3.28;;;2.00;;
33190;SDS011;19554;42.652;23.364;2023-03-08T13:01:42;3.28;;;1.77;;
33190;SDS011;19554;42.652;23.364;2023-03-08T13:04:27;5.50;;;2.10;;
33190;SDS011;19554;42.652;23.364;2023-03-08T13:10:18;4.82;;;2.10;;
33190;SDS011;19554;42.652;23.364;2023-03-08T13:15:39;4.93;;;2.05;;
33190;SDS011;19554;42.652;23.364;2023-03-08T13:28:34;3.00;;;2.20;;
33190;SDS011;19554;42.652;23.364;2023-03-08T13:31:25;6.40;;;2.20;;
33190;SDS011;19554;42.652;23.364;2023-03-08T13:33:53;4.63;;;2.37;;
33190;SDS011;19554;42.652;23.364;2023-03-08T13:36:20;5.32;;;2.40;;
33190;SDS011;19554;42.652;23.364;2023-03-08T13:39:01;9.40;;;2.22;;
33190;SDS011;19554;42.652;23.364;2023-03-08T13:44:01;7.35;;;2.70;;
33190;SDS011;19554;42.652;23.364;2023-03-08T13:46:39;4.43;;;1.95;;
33190;SDS011;19554;42.652;23.364;2023-03-08T13:49:49;4.88;;;2.03;;
33190;SDS011;19554;42.652;23.364;2023-03-08T13:52:12;3.78;;;1.98;;
33190;SDS011;19554;42.652;23.364;2023-03-08T13:54:43;4.72;;;2.40;;
33190;SDS011;19554;42.652;23.364;2023-03-08T13:57:18;7.30;;;1.90;;
33190;SDS011;19554;42.652;23.364;2023-03-08T13:59:50;5.38;;;1.60;;
33190;SDS011;19554;42.652;23.364;2023-03-08T14:04:47;6.43;;;2.22;;
33190;SDS011;19554;42.652;23.364;2023-03-08T14:07:20;6.50;;;2.13;;
33190;SDS011;19554;42.652;23.364;2023-03-08T14:09:51;11.70;;;2.40;;
33190;SDS011;19554;42.652;23.364;2023-03-08T14:12:18;5.90;;;2.28;;
33190;SDS011;19554;42.652;23.364;2023-03-08T14:14:53;8.68;;;1.90;;
33190;SDS011;19554;42.652;23.364;2023-03-08T14:17:22;4.57;;;2.20;;
33190;SDS011;19554;42.652;23.364;2023-03-08T14:19:52;3.67;;;1.90;;
33190;SDS011;19554;42.652;23.364;2023-03-08T14:22:20;5.40;;;1.80;;
33190;SDS011;19554;42.652;23.364;2023-03-08T14:24:48;4.38;;;1.83;;
33190;SDS011;19554;42.652;23.364;2023-03-08T14:29:42;7.78;;;2.60;;
33190;SDS011;19554;42.652;23.364;2023-03-08T14:34:35;7.45;;;2.05;;
33190;SDS011;19554;42.652;23.364;2023-03-08T14:39:41;7.03;;;2.33;;
33190;SDS011;19554;42.652;23.364;2023-03-08T14:44:54;4.97;;;2.50;;
33190;SDS011;19554;42.652;23.364;2023-03-08T14:47:24;5.75;;;2.10;;
33190;SDS011;19554;42.652;23.364;2023-03-08T14:50:04;4.88;;;2.60;;
33190;SDS011;19554;42.652;23.364;2023-03-08T14:52:43;9.38;;;2.90;;
33190;SDS011;19554;42.652;23.364;2023-03-08T14:57:57;7.28;;;2.75;;
33190;SDS011;19554;42.652;23.364;2023-03-08T15:00:25;7.63;;;3.30;;
33190;SDS011;19554;42.652;23.364;2023-03-08T15:02:52;4.50;;;1.95;;
33190;SDS011;19554;42.652;23.364;2023-03-08T15:05:19;10.80;;;3.15;;
33190;SDS011;19554;42.652;23.364;2023-03-08T15:07:46;8.60;;;2.83;;
33190;SDS011;19554;42.652;23.364;2023-03-08T15:10:26;3.78;;;2.38;;
33190;SDS011;19554;42.652;23.364;2023-03-08T15:12:55;6.43;;;2.58;;
33190;SDS011;19554;42.652;23.364;2023-03-08T15:15:21;5.88;;;3.00;;
33190;SDS011;19554;42.652;23.364;2023-03-08T15:17:46;7.13;;;3.30;;
33190;SDS011;19554;42.652;23.364;2023-03-08T15:20:12;7.07;;;3.55;;
33190;SDS011;19554;42.652;23.364;2023-03-08T15:22:45;3.25;;;2.00;;
33190;SDS011;19554;42.652;23.364;2023-03-08T15:25:18;5.78;;;2.78;;
33190;SDS011;19554;42.652;23.364;2023-03-08T15:27:48;4.88;;;2.15;;
33190;SDS011;19554;42.652;23.364;2023-03-08T15:30:14;4.13;;;1.98;;
33190;SDS011;19554;42.652;23.364;2023-03-08T15:32:41;5.13;;;2.25;;
33190;SDS011;19554;42.652;23.364;2023-03-08T15:35:06;2.78;;;1.67;;
33190;SDS011;19554;42.652;23.364;2023-03-08T15:37:32;2.63;;;1.83;;
33190;SDS011;19554;42.652;23.364;2023-03-08T15:39:57;3.45;;;2.00;;
33190;SDS011;19554;42.652;23.364;2023-03-08T15:42:23;3.80;;;2.17;;
33190;SDS011;19554;42.652;23.364;2023-03-08T15:44:48;4.43;;;2.70;;
33190;SDS011;19554;42.652;23.364;2023-03-08T15:47:13;9.75;;;3.70;;
33190;SDS011;19554;42.652;23.364;2023-03-08T15:49:39;7.18;;;2.45;;
33190;SDS011;19554;42.652;23.364;2023-03-08T15:52:04;7.05;;;3.00;;
33190;SDS011;19554;42.652;23.364;2023-03-08T15:54:30;8.10;;;3.67;;
33190;SDS011;19554;42.652;23.364;2023-03-08T15:56:55;7.65;;;3.20;;
33190;SDS011;19554;42.652;23.364;2023-03-08T15:59:22;4.80;;;2.38;;
33190;SDS011;19554;42.652;23.364;2023-03-08T16:01:47;7.18;;;2.55;;
33190;SDS011;19554;42.652;23.364;2023-03-08T16:04:13;5.13;;;2.30;;
33190;SDS011;19554;42.652;23.364;2023-03-08T16:06:39;5.50;;;2.80;;
33190;SDS011;19554;42.652;23.364;2023-03-08T16:09:05;9.80;;;3.40;;
33190;SDS011;19554;42.652;23.364;2023-03-08T16:11:31;5.15;;;2.90;;
33190;SDS011;19554;42.652;23.364;2023-03-08T16:13:56;9.18;;;2.92;;
33190;SDS011;19554;42.652;23.364;2023-03-08T16:16:21;6.97;;;2.65;;
33190;SDS011;19554;42.652;23.364;2023-03-08T16:18:47;7.35;;;2.78;;
33190;SDS011;19554;42.652;23.364;2023-03-08T16:21:12;9.43;;;4.10;;
33190;SDS011;19554;42.652;23.364;2023-03-08T16:23:38;9.98;;;3.63;;
33190;SDS011;19554;42.652;23.364;2023-03-08T16:26:06;5.35;;;3.28;;